createdAt,value
2022-08-22T00:04:58.431Z,22.39
2022-08-22T00:10:23.571Z,22.33
2022-08-22T00:15:52.574Z,22.25
2022-08-22T00:21:11.343Z,22.19
2022-08-22T00:26:15.974Z,22.15
2022-08-22T00:31:20.671Z,22.13
2022-08-22T00:36:58.022Z,22.06
2022-08-22T00:42:32.094Z,22.01
2022-08-22T00:48:08.067Z,21.97
2022-08-22T00:53:48.451Z,21.92
2022-08-22T00:59:00.141Z,21.89
2022-08-22T01:04:38.166Z,21.84
2022-08-22T01:10:02.981Z,21.81
2022-08-22T01:15:15.798Z,21.77
2022-08-22T01:20:42.130Z,21.73
2022-08-22T01:26:21.118Z,21.67
2022-08-22T01:31:51.333Z,21.62
2022-08-22T01:37:37.983Z,21.57
2022-08-22T01:43:03.376Z,21.53
2022-08-22T01:48:15.094Z,21.48
2022-08-22T01:53:39.641Z,21.43
2022-08-22T01:59:10.957Z,21.38
2022-08-22T02:04:47.270Z,21.34
2022-08-22T02:10:18.054Z,21.30
2022-08-22T02:15:38.460Z,21.27
2022-08-22T02:21:02.962Z,21.21
2022-08-22T02:26:12.334Z,21.14
2022-08-22T02:31:25.025Z,21.10
2022-08-22T02:36:46.738Z,21.03
2022-08-22T02:42:00.062Z,20.98
2022-08-22T02:47:33.450Z,20.94
2022-08-22T02:52:54.826Z,20.88
2022-08-22T02:58:38.681Z,20.84
2022-08-22T03:03:43.013Z,20.83
2022-08-22T03:09:16.547Z,20.78
2022-08-22T03:14:35.745Z,20.73
2022-08-22T03:19:56.841Z,20.71
2022-08-22T03:25:34.254Z,20.68
2022-08-22T03:30:56.099Z,20.65
2022-08-22T03:36:06.660Z,20.63
2022-08-22T03:41:20.406Z,20.59
2022-08-22T03:46:40.670Z,20.54
2022-08-22T03:52:02.290Z,20.48
2022-08-22T03:57:45.211Z,20.45
2022-08-22T04:03:08.618Z,20.42
2022-08-22T04:08:43.809Z,20.40
2022-08-22T04:14:03.554Z,20.37
2022-08-22T04:19:31.832Z,20.32
2022-08-22T04:24:52.364Z,20.28
2022-08-22T04:30:16.874Z,20.22
2022-08-22T04:35:33.117Z,20.19
2022-08-22T04:40:43.450Z,20.17
2022-08-22T04:46:02.001Z,20.16
2022-08-22T04:51:12.762Z,20.13
2022-08-22T04:56:42.209Z,20.11
2022-08-22T05:01:59.251Z,20.10
2022-08-22T05:07:06.036Z,20.10
2022-08-22T05:12:14.685Z,20.12
2022-08-22T05:17:22.813Z,20.14
2022-08-22T05:22:32.010Z,20.17
2022-08-22T05:27:39.392Z,20.21
2022-08-22T05:33:03.799Z,20.27
2022-08-22T05:38:10.186Z,20.34
2022-08-22T05:43:13.166Z,20.39
2022-08-22T05:48:25.708Z,20.46
2022-08-22T05:53:38.666Z,20.50
2022-08-22T05:58:46.843Z,20.54
2022-08-22T06:03:57.797Z,20.61
2022-08-22T06:09:08.717Z,20.63
2022-08-22T06:14:42.559Z,20.70
2022-08-22T06:19:50.408Z,20.77
2022-08-22T06:24:54.475Z,20.84
2022-08-22T06:30:00.309Z,20.91
2022-08-22T06:35:07.062Z,21.01
2022-08-22T06:40:12.299Z,21.11
2022-08-22T06:45:31.409Z,21.20
2022-08-22T06:50:39.864Z,21.30
2022-08-22T06:55:49.253Z,21.37
2022-08-22T07:01:11.535Z,21.43
2022-08-22T07:06:19.419Z,21.49
2022-08-22T07:11:28.154Z,21.54
2022-08-22T07:16:34.232Z,21.61
2022-08-22T07:21:46.383Z,21.68
2022-08-22T07:27:02.929Z,21.71
2022-08-22T07:32:29.249Z,21.76
2022-08-22T07:37:40.069Z,21.78
2022-08-22T07:42:52.482Z,21.80
2022-08-22T07:48:03.386Z,21.83
2022-08-22T07:53:37.618Z,21.87
2022-08-22T07:58:43.196Z,21.95
2022-08-22T08:03:54.441Z,22.03
2022-08-22T08:08:57.567Z,22.17
2022-08-22T08:14:03.741Z,22.33
2022-08-22T08:19:07.114Z,22.47
2022-08-22T08:24:15.893Z,22.60
2022-08-22T08:29:18.766Z,22.75
2022-08-22T08:34:25.798Z,22.92
2022-08-22T08:39:43.643Z,23.09
2022-08-22T08:45:03.145Z,23.29
2022-08-22T08:50:31.570Z,23.47
2022-08-22T08:56:11.522Z,23.64
2022-08-22T09:01:27.703Z,23.78
2022-08-22T09:06:42.310Z,23.93
2022-08-22T09:12:09.016Z,24.08
2022-08-22T09:17:32.731Z,24.22
2022-08-22T09:22:51.084Z,24.34
2022-08-22T09:28:13.768Z,24.44
2022-08-22T09:33:21.571Z,24.56
2022-08-22T09:38:31.970Z,24.66
2022-08-22T09:44:05.802Z,24.73
2022-08-22T09:49:23.503Z,24.78
2022-08-22T09:54:39.621Z,24.82
2022-08-22T09:59:58.124Z,24.85
2022-08-22T10:05:39.467Z,24.84
2022-08-22T10:10:51.328Z,24.85
2022-08-22T10:16:15.110Z,24.90
2022-08-22T10:21:17.648Z,24.94
2022-08-22T10:27:08.157Z,25.06
2022-08-22T10:32:36.210Z,25.08
2022-08-22T10:37:54.982Z,25.14
2022-08-22T10:43:11.557Z,25.23
2022-08-22T10:48:22.678Z,25.32
2022-08-22T10:53:34.823Z,25.42
2022-08-22T10:58:46.293Z,25.54
2022-08-22T11:04:03.077Z,25.62
2022-08-22T11:09:39.514Z,25.70
2022-08-22T11:14:44.762Z,25.83
2022-08-22T11:20:35.204Z,25.92
2022-08-22T11:25:58.679Z,26.00
2022-08-22T11:31:20.090Z,26.06
2022-08-22T11:36:40.960Z,26.12
2022-08-22T11:42:02.907Z,26.26
2022-08-22T11:47:11.179Z,26.44
2022-08-22T11:52:51.770Z,26.47
2022-08-22T11:58:29.244Z,26.61
2022-08-22T12:03:58.032Z,26.73
2022-08-22T12:09:18.536Z,26.89
2022-08-22T12:14:27.016Z,27.01
2022-08-22T12:20:12.728Z,26.88
2022-08-22T12:25:15.793Z,26.81
2022-08-22T12:30:31.314Z,26.89
2022-08-22T12:35:45.069Z,27.06
2022-08-22T12:41:08.172Z,27.18
2022-08-22T12:46:47.613Z,27.31
2022-08-22T12:52:04.243Z,27.50
2022-08-22T12:57:24.493Z,27.63
2022-08-22T13:02:34.885Z,27.82
2022-08-22T13:07:39.219Z,27.92
2022-08-22T13:13:03.956Z,27.93
2022-08-22T13:18:31.654Z,27.99
2022-08-22T13:23:43.489Z,28.09
2022-08-22T13:29:09.044Z,28.21
2022-08-22T13:34:29.592Z,28.29
2022-08-22T13:39:39.231Z,28.38
2022-08-22T13:44:46.244Z,28.39
2022-08-22T13:49:52.531Z,28.40
2022-08-22T13:55:12.280Z,28.40
2022-08-22T14:00:29.193Z,28.37
2022-08-22T14:05:38.794Z,28.38
2022-08-22T14:11:08.310Z,28.37
2022-08-22T14:16:36.442Z,28.30
2022-08-22T14:21:53.409Z,28.26
2022-08-22T14:27:06.324Z,28.21
2022-08-22T14:32:26.734Z,28.14
2022-08-22T14:37:35.342Z,28.10
2022-08-22T14:42:47.832Z,28.05
2022-08-22T14:48:30.375Z,28.01
2022-08-22T14:53:27.950Z,27.98
2022-08-22T14:58:48.070Z,27.90
2022-08-22T15:04:05.186Z,27.69
2022-08-22T15:09:40.404Z,27.52
2022-08-22T15:14:52.169Z,27.51
2022-08-22T15:20:10.960Z,27.52
2022-08-22T15:25:19.447Z,27.52
2022-08-22T15:30:44.328Z,27.50
2022-08-22T15:35:47.754Z,27.51
2022-08-22T15:40:49.961Z,27.50
2022-08-22T15:46:26.703Z,27.49
2022-08-22T15:51:37.662Z,27.49
2022-08-22T15:56:42.753Z,27.45
2022-08-22T16:01:56.451Z,27.43
2022-08-22T16:07:01.571Z,27.40
2022-08-22T16:12:08.974Z,27.38
2022-08-22T16:17:25.836Z,27.30
2022-08-22T16:22:56.552Z,27.22
2022-08-22T16:27:59.091Z,27.11
2022-08-22T16:33:01.487Z,27.03
2022-08-22T16:38:03.248Z,26.95
2022-08-22T16:43:18.324Z,26.88
2022-08-22T16:48:33.521Z,26.83
2022-08-22T16:53:35.118Z,26.77
2022-08-22T16:59:06.109Z,26.73
2022-08-22T17:04:30.760Z,26.70
2022-08-22T17:09:51.207Z,26.68
2022-08-22T17:15:06.345Z,26.68
2022-08-22T17:20:20.418Z,26.71
2022-08-22T17:25:36.912Z,26.74
2022-08-22T17:30:47.395Z,26.76
2022-08-22T17:36:03.715Z,26.75
2022-08-22T17:41:51.118Z,26.69
2022-08-22T17:47:00.914Z,26.62
2022-08-22T17:52:25.223Z,26.51
2022-08-22T17:57:49.460Z,26.41
2022-08-22T18:02:58.238Z,26.32
2022-08-22T18:08:37.533Z,26.25
2022-08-22T18:13:49.733Z,26.14
2022-08-22T18:19:32.985Z,26.04
2022-08-22T18:24:46.169Z,25.94
2022-08-22T18:30:06.008Z,25.84
2022-08-22T18:35:15.022Z,25.74
2022-08-22T18:40:33.472Z,25.64
2022-08-22T18:45:44.729Z,25.52
2022-08-22T18:50:47.707Z,25.43
2022-08-22T18:55:56.960Z,25.36
2022-08-22T19:01:35.980Z,25.29
2022-08-22T19:07:05.398Z,25.17
2022-08-22T19:12:07.688Z,25.09
2022-08-22T19:17:32.897Z,25.02
2022-08-22T19:22:36.587Z,24.94
2022-08-22T19:28:06.971Z,24.85
2022-08-22T19:33:19.650Z,24.78
2022-08-22T19:38:51.131Z,24.71
2022-08-22T19:43:54.187Z,24.66
2022-08-22T19:48:56.235Z,24.60
2022-08-22T19:53:58.782Z,24.56
2022-08-22T19:59:13.010Z,24.49
2022-08-22T20:04:44.555Z,24.43
2022-08-22T20:09:52.291Z,24.37
2022-08-22T20:14:54.757Z,24.31
2022-08-22T20:20:30.533Z,24.24
2022-08-22T20:25:52.026Z,24.14
2022-08-22T20:30:58.717Z,24.07
2022-08-22T20:36:27.343Z,23.99
2022-08-22T20:41:39.424Z,23.92
2022-08-22T20:47:04.606Z,23.84
2022-08-22T20:52:10.985Z,23.76
2022-08-22T20:57:17.048Z,23.69
2022-08-22T21:02:23.051Z,23.63
2022-08-22T21:07:31.506Z,23.56
2022-08-22T21:12:33.105Z,23.49
2022-08-22T21:17:39.073Z,23.42
2022-08-22T21:22:42.245Z,23.32
2022-08-22T21:27:47.237Z,23.23
2022-08-22T21:32:53.718Z,23.14
2022-08-22T21:37:59.373Z,23.09
2022-08-22T21:43:11.528Z,23.03
2022-08-22T21:49:02.665Z,22.98
2022-08-22T21:54:25.746Z,22.93
2022-08-22T21:59:52.058Z,22.89
2022-08-22T22:04:58.918Z,22.85
2022-08-22T22:10:00.974Z,22.80
2022-08-22T22:15:03.311Z,22.73
2022-08-22T22:20:06.886Z,22.69
2022-08-22T22:25:40.609Z,22.63
2022-08-22T22:30:30.573Z,22.57
2022-08-22T22:35:32.650Z,22.51
2022-08-22T22:40:35.351Z,22.43
2022-08-22T22:45:38.020Z,22.37
2022-08-22T22:50:43.226Z,22.29
2022-08-22T22:55:44.832Z,22.22
2022-08-22T23:00:46.679Z,22.16
2022-08-22T23:05:48.575Z,22.10
2022-08-22T23:10:50.191Z,22.06
2022-08-22T23:15:51.967Z,22.02
2022-08-22T23:20:53.565Z,21.98
2022-08-22T23:25:55.150Z,21.93
2022-08-22T23:30:56.710Z,21.85
2022-08-22T23:36:00.093Z,21.79
2022-08-22T23:41:09.819Z,21.72
2022-08-22T23:46:12.713Z,21.65
2022-08-22T23:51:16.522Z,21.57
2022-08-22T23:56:39.351Z,21.42
